sensor_id;sensor_type;location;lat;lon;timestamp;pressure;altitude;pressure_sealevel;temperature;humidity
59274;BME280;45044;41.572;24.730;2023-06-14T00:02:11;91124.69;;;12.38;100.00
59274;BME280;45044;41.572;24.730;2023-06-14T00:04:38;91120.53;;;12.41;100.00
59274;BME280;45044;41.572;24.730;2023-06-14T00:07:09;91123.16;;;12.41;100.00
59274;BME280;45044;41.572;24.730;2023-06-14T00:09:39;91121.69;;;12.36;100.00
59274;BME280;45044;41.572;24.730;2023-06-14T00:12:06;91119.91;;;12.22;100.00
59274;BME280;45044;41.572;24.730;2023-06-14T00:14:33;91126.06;;;12.01;100.00
59274;BME280;45044;41.572;24.730;2023-06-14T00:17:00;91124.94;;;11.98;100.00
59274;BME280;45044;41.572;24.730;2023-06-14T00:19:27;91116.69;;;11.92;100.00
59274;BME280;45044;41.572;24.730;2023-06-14T00:21:57;91119.63;;;12.05;100.00
59274;BME280;45044;41.572;24.730;2023-06-14T00:24:24;91116.59;;;12.07;100.00
59274;BME280;45044;41.572;24.730;2023-06-14T00:26:51;91120.38;;;12.09;100.00
59274;BME280;45044;41.572;24.730;2023-06-14T00:29:18;91117.69;;;12.17;100.00
59274;BME280;45044;41.572;24.730;2023-06-14T00:31:44;91115.00;;;12.24;100.00
59274;BME280;45044;41.572;24.730;2023-06-14T00:34:11;91107.16;;;12.17;100.00
59274;BME280;45044;41.572;24.730;2023-06-14T00:36:38;91105.19;;;12.28;100.00
59274;BME280;45044;41.572;24.730;2023-06-14T00:39:05;91111.91;;;12.37;100.00
59274;BME280;45044;41.572;24.730;2023-06-14T00:41:31;91106.59;;;12.40;100.00
59274;BME280;45044;41.572;24.730;2023-06-14T00:43:58;91106.25;;;12.34;100.00
59274;BME280;45044;41.572;24.730;2023-06-14T00:46:26;91105.22;;;12.25;100.00
59274;BME280;45044;41.572;24.730;2023-06-14T00:48:54;91102.94;;;12.27;100.00
59274;BME280;45044;41.572;24.730;2023-06-14T00:51:22;91101.41;;;12.29;100.00
59274;BME280;45044;41.572;24.730;2023-06-14T00:53:49;91091.56;;;12.37;100.00
59274;BME280;45044;41.572;24.730;2023-06-14T00:56:16;91084.84;;;12.29;100.00
59274;BME280;45044;41.572;24.730;2023-06-14T00:58:51;91089.31;;;12.36;100.00
59274;BME280;45044;41.572;24.730;2023-06-14T01:01:18;91094.22;;;12.37;100.00
59274;BME280;45044;41.572;24.730;2023-06-14T01:03:45;91086.69;;;12.36;100.00
59274;BME280;45044;41.572;24.730;2023-06-14T01:11:50;91093.03;;;12.42;100.00
59274;BME280;45044;41.572;24.730;2023-06-14T01:14:18;91091.88;;;12.47;100.00
59274;BME280;45044;41.572;24.730;2023-06-14T01:16:50;91079.41;;;12.47;100.00
59274;BME280;45044;41.572;24.730;2023-06-14T01:19:20;91073.09;;;12.41;100.00
59274;BME280;45044;41.572;24.730;2023-06-14T01:21:49;91073.03;;;12.48;100.00
59274;BME280;45044;41.572;24.730;2023-06-14T01:24:17;91079.44;;;12.43;100.00
59274;BME280;45044;41.572;24.730;2023-06-14T01:26:46;91078.31;;;12.48;100.00
59274;BME280;45044;41.572;24.730;2023-06-14T01:29:18;91081.72;;;12.41;100.00
59274;BME280;45044;41.572;24.730;2023-06-14T01:31:45;91077.63;;;12.37;100.00
59274;BME280;45044;41.572;24.730;2023-06-14T01:34:13;91074.22;;;12.40;100.00
59274;BME280;45044;41.572;24.730;2023-06-14T01:36:41;91073.06;;;12.44;100.00
59274;BME280;45044;41.572;24.730;2023-06-14T01:39:14;91060.28;;;12.43;100.00
59274;BME280;45044;41.572;24.730;2023-06-14T01:41:43;91072.66;;;12.46;100.00
59274;BME280;45044;41.572;24.730;2023-06-14T01:44:21;91068.97;;;12.36;100.00
59274;BME280;45044;41.572;24.730;2023-06-14T01:46:49;91081.06;;;12.33;100.00
59274;BME280;45044;41.572;24.730;2023-06-14T01:49:15;91081.78;;;12.34;100.00
59274;BME280;45044;41.572;24.730;2023-06-14T01:51:42;91078.41;;;12.33;100.00
59274;BME280;45044;41.572;24.730;2023-06-14T01:54:09;91077.63;;;12.37;100.00
59274;BME280;45044;41.572;24.730;2023-06-14T01:56:36;91074.31;;;12.29;100.00
59274;BME280;45044;41.572;24.730;2023-06-14T01:59:03;91072.06;;;12.27;100.00
59274;BME280;45044;41.572;24.730;2023-06-14T02:01:29;91073.91;;;12.30;100.00
59274;BME280;45044;41.572;24.730;2023-06-14T02:04:03;91068.31;;;12.28;100.00
59274;BME280;45044;41.572;24.730;2023-06-14T02:06:29;91078.78;;;12.36;100.00
59274;BME280;45044;41.572;24.730;2023-06-14T02:08:56;91080.63;;;12.39;100.00
59274;BME280;45044;41.572;24.730;2023-06-14T02:11:23;91080.28;;;12.37;100.00
59274;BME280;45044;41.572;24.730;2023-06-14T02:13:50;91082.91;;;12.37;100.00
59274;BME280;45044;41.572;24.730;2023-06-14T02:16:17;91084.38;;;12.38;100.00
59274;BME280;45044;41.572;24.730;2023-06-14T02:18:45;91074.06;;;12.12;100.00
59274;BME280;45044;41.572;24.730;2023-06-14T02:21:12;91079.97;;;12.27;100.00
59274;BME280;45044;41.572;24.730;2023-06-14T02:23:39;91084.38;;;12.38;100.00
59274;BME280;45044;41.572;24.730;2023-06-14T02:26:06;91082.16;;;12.36;100.00
59274;BME280;45044;41.572;24.730;2023-06-14T02:28:33;91080.22;;;12.44;100.00
59274;BME280;45044;41.572;24.730;2023-06-14T02:31:02;91088.47;;;12.46;100.00
59274;BME280;45044;41.572;24.730;2023-06-14T02:33:28;91087.78;;;12.38;100.00
59274;BME280;45044;41.572;24.730;2023-06-14T02:35:55;91093.94;;;12.24;100.00
59274;BME280;45044;41.572;24.730;2023-06-14T02:38:22;91092.88;;;12.07;100.00
59274;BME280;45044;41.572;24.730;2023-06-14T02:40:50;91098.50;;;12.09;100.00
59274;BME280;45044;41.572;24.730;2023-06-14T02:43:17;91096.59;;;12.20;100.00
59274;BME280;45044;41.572;24.730;2023-06-14T02:45:44;91096.63;;;12.17;100.00
59274;BME280;45044;41.572;24.730;2023-06-14T02:48:10;91102.22;;;12.23;100.00
59274;BME280;45044;41.572;24.730;2023-06-14T02:50:38;91105.25;;;12.21;100.00
59274;BME280;45044;41.572;24.730;2023-06-14T02:53:05;91105.94;;;12.29;100.00
59274;BME280;45044;41.572;24.730;2023-06-14T02:55:33;91102.13;;;12.33;100.00
59274;BME280;45044;41.572;24.730;2023-06-14T02:58:00;91107.00;;;12.39;100.00
59274;BME280;45044;41.572;24.730;2023-06-14T03:00:26;91106.56;;;12.44;100.00
59274;BME280;45044;41.572;24.730;2023-06-14T03:02:57;91102.06;;;12.44;100.00
59274;BME280;45044;41.572;24.730;2023-06-14T03:05:24;91108.88;;;12.38;100.00
59274;BME280;45044;41.572;24.730;2023-06-14T03:07:51;91109.63;;;12.39;100.00
59274;BME280;45044;41.572;24.730;2023-06-14T03:10:20;91113.75;;;12.40;100.00
59274;BME280;45044;41.572;24.730;2023-06-14T03:12:48;91110.19;;;12.12;100.00
59274;BME280;45044;41.572;24.730;2023-06-14T03:15:15;91121.44;;;12.23;100.00
59274;BME280;45044;41.572;24.730;2023-06-14T03:17:43;91115.72;;;12.32;100.00
59274;BME280;45044;41.572;24.730;2023-06-14T03:20:12;91119.41;;;12.38;100.00
59274;BME280;45044;41.572;24.730;2023-06-14T03:22:39;91116.44;;;12.32;100.00
59274;BME280;45044;41.572;24.730;2023-06-14T03:25:08;91113.50;;;12.27;100.00
59274;BME280;45044;41.572;24.730;2023-06-14T03:27:35;91117.59;;;12.31;100.00
59274;BME280;45044;41.572;24.730;2023-06-14T03:30:02;91127.03;;;12.25;100.00
59274;BME280;45044;41.572;24.730;2023-06-14T03:32:30;91130.75;;;12.31;100.00
59274;BME280;45044;41.572;24.730;2023-06-14T03:34:59;91123.16;;;12.44;100.00
59274;BME280;45044;41.572;24.730;2023-06-14T03:37:26;91125.69;;;12.55;100.00
59274;BME280;45044;41.572;24.730;2023-06-14T03:39:53;91125.25;;;12.64;100.00
59274;BME280;45044;41.572;24.730;2023-06-14T03:42:20;91122.56;;;12.68;100.00
59274;BME280;45044;41.572;24.730;2023-06-14T03:44:47;91127.03;;;12.75;100.00
59274;BME280;45044;41.572;24.730;2023-06-14T03:47:14;91125.22;;;12.68;100.00
59274;BME280;45044;41.572;24.730;2023-06-14T03:49:41;91130.03;;;12.77;100.00
59274;BME280;45044;41.572;24.730;2023-06-14T03:52:08;91122.91;;;12.74;100.00
59274;BME280;45044;41.572;24.730;2023-06-14T03:54:35;91120.91;;;12.85;100.00
59274;BME280;45044;41.572;24.730;2023-06-14T03:57:05;91120.13;;;12.88;100.00
59274;BME280;45044;41.572;24.730;2023-06-14T03:59:32;91123.44;;;12.96;100.00
59274;BME280;45044;41.572;24.730;2023-06-14T04:01:59;91120.44;;;12.94;100.00
59274;BME280;45044;41.572;24.730;2023-06-14T04:04:26;91128.72;;;12.96;100.00
59274;BME280;45044;41.572;24.730;2023-06-14T04:06:56;91119.22;;;13.02;100.00
59274;BME280;45044;41.572;24.730;2023-06-14T04:09:24;91122.72;;;12.92;100.00
59274;BME280;45044;41.572;24.730;2023-06-14T04:11:52;91127.16;;;13.02;100.00
59274;BME280;45044;41.572;24.730;2023-06-14T04:14:19;91118.38;;;13.13;100.00
59274;BME280;45044;41.572;24.730;2023-06-14T04:16:47;91126.31;;;13.09;100.00
59274;BME280;45044;41.572;24.730;2023-06-14T04:19:15;91127.78;;;13.14;100.00
59274;BME280;45044;41.572;24.730;2023-06-14T04:21:42;91130.03;;;13.15;100.00
59274;BME280;45044;41.572;24.730;2023-06-14T04:24:09;91129.22;;;13.22;100.00
59274;BME280;45044;41.572;24.730;2023-06-14T04:26:44;91126.97;;;13.21;100.00
59274;BME280;45044;41.572;24.730;2023-06-14T04:29:11;91126.56;;;13.22;100.00
59274;BME280;45044;41.572;24.730;2023-06-14T04:31:43;91131.75;;;13.29;100.00
59274;BME280;45044;41.572;24.730;2023-06-14T04:34:12;91141.09;;;13.38;100.00
59274;BME280;45044;41.572;24.730;2023-06-14T04:36:45;91138.16;;;13.32;100.00
59274;BME280;45044;41.572;24.730;2023-06-14T04:39:16;91135.13;;;13.34;100.00
59274;BME280;45044;41.572;24.730;2023-06-14T04:41:46;91144.09;;;13.40;100.00
59274;BME280;45044;41.572;24.730;2023-06-14T04:44:13;91138.94;;;13.29;100.00
59274;BME280;45044;41.572;24.730;2023-06-14T04:46:40;91138.88;;;13.33;100.00
59274;BME280;45044;41.572;24.730;2023-06-14T04:49:16;91141.13;;;13.34;100.00
59274;BME280;45044;41.572;24.730;2023-06-14T04:51:45;91150.31;;;13.22;100.00
59274;BME280;45044;41.572;24.730;2023-06-14T04:54:13;91140.56;;;13.19;100.00
59274;BME280;45044;41.572;24.730;2023-06-14T04:56:41;91135.28;;;13.19;100.00
59274;BME280;45044;41.572;24.730;2023-06-14T04:59:14;91142.97;;;13.41;100.00
59274;BME280;45044;41.572;24.730;2023-06-14T05:01:43;91146.25;;;13.52;100.00
59274;BME280;45044;41.572;24.730;2023-06-14T05:04:16;91146.91;;;13.60;100.00
59274;BME280;45044;41.572;24.730;2023-06-14T05:06:44;91151.34;;;13.67;100.00
59274;BME280;45044;41.572;24.730;2023-06-14T05:09:17;91143.34;;;13.74;100.00
59274;BME280;45044;41.572;24.730;2023-06-14T05:11:44;91141.38;;;13.82;100.00
59274;BME280;45044;41.572;24.730;2023-06-14T05:14:11;91158.03;;;14.07;100.00
59274;BME280;45044;41.572;24.730;2023-06-14T05:16:39;91166.34;;;14.05;100.00
59274;BME280;45044;41.572;24.730;2023-06-14T05:19:06;91164.88;;;14.32;100.00
59274;BME280;45044;41.572;24.730;2023-06-14T05:21:33;91170.47;;;14.61;100.00
59274;BME280;45044;41.572;24.730;2023-06-14T05:24:08;91178.59;;;14.75;100.00
59274;BME280;45044;41.572;24.730;2023-06-14T05:26:36;91184.38;;;14.93;100.00
59274;BME280;45044;41.572;24.730;2023-06-14T05:29:02;91182.59;;;15.31;100.00
59274;BME280;45044;41.572;24.730;2023-06-14T05:31:30;91192.31;;;15.17;100.00
59274;BME280;45044;41.572;24.730;2023-06-14T05:33:57;91188.72;;;15.68;100.00
59274;BME280;45044;41.572;24.730;2023-06-14T05:36:24;91191.53;;;16.02;100.00
59274;BME280;45044;41.572;24.730;2023-06-14T05:38:51;91194.06;;;16.26;100.00
59274;BME280;45044;41.572;24.730;2023-06-14T05:41:27;91203.66;;;16.73;100.00
59274;BME280;45044;41.572;24.730;2023-06-14T05:43:55;91200.47;;;17.29;100.00
59274;BME280;45044;41.572;24.730;2023-06-14T05:46:23;91212.69;;;18.28;100.00
59274;BME280;45044;41.572;24.730;2023-06-14T05:48:52;91214.91;;;19.08;100.00
59274;BME280;45044;41.572;24.730;2023-06-14T05:51:19;91208.81;;;19.08;100.00
59274;BME280;45044;41.572;24.730;2023-06-14T05:53:48;91216.50;;;19.06;100.00
59274;BME280;45044;41.572;24.730;2023-06-14T05:56:15;91219.94;;;18.93;100.00
59274;BME280;45044;41.572;24.730;2023-06-14T05:58:45;91217.50;;;18.60;100.00
59274;BME280;45044;41.572;24.730;2023-06-14T06:01:12;91213.13;;;18.40;100.00
59274;BME280;45044;41.572;24.730;2023-06-14T06:03:40;91215.69;;;18.43;100.00
59274;BME280;45044;41.572;24.730;2023-06-14T06:06:08;91213.34;;;18.59;100.00
59274;BME280;45044;41.572;24.730;2023-06-14T06:08:34;91221.31;;;18.33;100.00
59274;BME280;45044;41.572;24.730;2023-06-14T06:11:01;91215.88;;;18.23;100.00
59274;BME280;45044;41.572;24.730;2023-06-14T06:13:28;91213.41;;;18.16;100.00
59274;BME280;45044;41.572;24.730;2023-06-14T06:15:55;91210.88;;;17.53;100.00
59274;BME280;45044;41.572;24.730;2023-06-14T06:18:22;91219.78;;;17.76;100.00
59274;BME280;45044;41.572;24.730;2023-06-14T06:20:49;91217.50;;;17.91;100.00
59274;BME280;45044;41.572;24.730;2023-06-14T06:23:16;91227.66;;;17.79;100.00
59274;BME280;45044;41.572;24.730;2023-06-14T06:25:43;91226.28;;;17.75;100.00
59274;BME280;45044;41.572;24.730;2023-06-14T06:28:10;91223.66;;;17.88;100.00
59274;BME280;45044;41.572;24.730;2023-06-14T06:30:38;91227.72;;;18.05;100.00
59274;BME280;45044;41.572;24.730;2023-06-14T06:33:04;91231.13;;;18.49;100.00
59274;BME280;45044;41.572;24.730;2023-06-14T06:35:32;91229.72;;;18.83;100.00
59274;BME280;45044;41.572;24.730;2023-06-14T06:37:59;91230.13;;;19.08;100.00
59274;BME280;45044;41.572;24.730;2023-06-14T06:40:27;91223.50;;;19.25;100.00
59274;BME280;45044;41.572;24.730;2023-06-14T06:42:54;91235.63;;;19.75;100.00
59274;BME280;45044;41.572;24.730;2023-06-14T06:45:21;91234.00;;;20.00;100.00
59274;BME280;45044;41.572;24.730;2023-06-14T06:47:51;91237.03;;;19.67;100.00
59274;BME280;45044;41.572;24.730;2023-06-14T06:50:19;91235.63;;;19.75;100.00
59274;BME280;45044;41.572;24.730;2023-06-14T06:52:54;91241.88;;;19.59;100.00
59274;BME280;45044;41.572;24.730;2023-06-14T06:55:21;91231.13;;;19.49;100.00
59274;BME280;45044;41.572;24.730;2023-06-14T06:57:50;91236.06;;;19.38;100.00
59274;BME280;45044;41.572;24.730;2023-06-14T07:00:20;91236.41;;;19.27;100.00
59274;BME280;45044;41.572;24.730;2023-06-14T07:02:47;91234.25;;;19.70;100.00
59274;BME280;45044;41.572;24.730;2023-06-14T07:05:14;91243.63;;;19.75;100.00
59274;BME280;45044;41.572;24.730;2023-06-14T07:07:42;91242.94;;;19.84;100.00
59274;BME280;45044;41.572;24.730;2023-06-14T07:10:08;91237.47;;;19.65;100.00
59274;BME280;45044;41.572;24.730;2023-06-14T07:12:35;91240.44;;;19.67;100.00
59274;BME280;45044;41.572;24.730;2023-06-14T07:15:07;91237.16;;;19.85;100.00
59274;BME280;45044;41.572;24.730;2023-06-14T07:17:35;91230.94;;;19.44;100.00
59274;BME280;45044;41.572;24.730;2023-06-14T07:20:03;91239.16;;;19.94;100.00
59274;BME280;45044;41.572;24.730;2023-06-14T07:22:34;91236.72;;;19.87;100.00
59274;BME280;45044;41.572;24.730;2023-06-14T07:25:01;91242.69;;;20.36;100.00
59274;BME280;45044;41.572;24.730;2023-06-14T07:27:27;91235.25;;;20.08;100.00
59274;BME280;45044;41.572;24.730;2023-06-14T07:29:54;91234.94;;;19.48;100.00
59274;BME280;45044;41.572;24.730;2023-06-14T07:32:21;91239.47;;;19.38;100.00
59274;BME280;45044;41.572;24.730;2023-06-14T07:34:48;91239.31;;;19.78;100.00
59274;BME280;45044;41.572;24.730;2023-06-14T07:37:15;91237.13;;;19.98;100.00
59274;BME280;45044;41.572;24.730;2023-06-14T07:39:41;91231.28;;;19.91;100.00
59274;BME280;45044;41.572;24.730;2023-06-14T07:42:08;91236.72;;;19.87;100.00
59274;BME280;45044;41.572;24.730;2023-06-14T07:44:35;91242.44;;;19.98;100.00
59274;BME280;45044;41.572;24.730;2023-06-14T07:47:02;91242.38;;;19.89;100.00
59274;BME280;45044;41.572;24.730;2023-06-14T07:49:29;91243.94;;;19.99;100.00
59274;BME280;45044;41.572;24.730;2023-06-14T07:51:57;91248.53;;;19.77;100.00
59274;BME280;45044;41.572;24.730;2023-06-14T07:54:25;91247.03;;;19.75;100.00
59274;BME280;45044;41.572;24.730;2023-06-14T07:56:53;91242.66;;;19.46;100.00
59274;BME280;45044;41.572;24.730;2023-06-14T07:59:19;91253.59;;;19.84;100.00
59274;BME280;45044;41.572;24.730;2023-06-14T08:01:46;91264.94;;;19.97;100.00
59274;BME280;45044;41.572;24.730;2023-06-14T08:04:14;91265.06;;;19.71;100.00
59274;BME280;45044;41.572;24.730;2023-06-14T08:06:51;91266.50;;;19.85;100.00
59274;BME280;45044;41.572;24.730;2023-06-14T08:09:19;91270.38;;;20.07;100.00
59274;BME280;45044;41.572;24.730;2023-06-14T08:11:45;91267.97;;;19.86;100.00
59274;BME280;45044;41.572;24.730;2023-06-14T08:14:12;91265.34;;;19.51;100.00
59274;BME280;45044;41.572;24.730;2023-06-14T08:16:39;91277.75;;;19.32;100.00
59274;BME280;45044;41.572;24.730;2023-06-14T08:19:07;91280.22;;;19.13;100.00
59274;BME280;45044;41.572;24.730;2023-06-14T08:21:36;91281.72;;;19.14;100.00
59274;BME280;45044;41.572;24.730;2023-06-14T08:24:04;91280.22;;;19.13;100.00
59274;BME280;45044;41.572;24.730;2023-06-14T08:26:31;91285.19;;;19.50;100.00
59274;BME280;45044;41.572;24.730;2023-06-14T08:28:58;91291.09;;;19.67;100.00
59274;BME280;45044;41.572;24.730;2023-06-14T08:31:25;91293.81;;;19.90;100.00
59274;BME280;45044;41.572;24.730;2023-06-14T08:33:52;91294.72;;;19.96;100.00
59274;BME280;45044;41.572;24.730;2023-06-14T08:36:18;91287.19;;;19.59;100.00
59274;BME280;45044;41.572;24.730;2023-06-14T08:38:46;91291.31;;;19.73;100.00
59274;BME280;45044;41.572;24.730;2023-06-14T08:41:22;91295.75;;;19.76;100.00
59274;BME280;45044;41.572;24.730;2023-06-14T08:43:52;91297.75;;;19.62;100.00
59274;BME280;45044;41.572;24.730;2023-06-14T08:46:19;91298.16;;;19.61;100.00
59274;BME280;45044;41.572;24.730;2023-06-14T08:48:51;91300.19;;;19.57;100.00
59274;BME280;45044;41.572;24.730;2023-06-14T08:51:19;91297.09;;;19.58;100.00
59274;BME280;45044;41.572;24.730;2023-06-14T08:53:52;91293.63;;;19.09;100.00
59274;BME280;45044;41.572;24.730;2023-06-14T08:56:19;91300.56;;;19.33;100.00
59274;BME280;45044;41.572;24.730;2023-06-14T08:58:46;91299.81;;;19.32;100.00
59274;BME280;45044;41.572;24.730;2023-06-14T09:01:14;91297.41;;;19.60;100.00
59274;BME280;45044;41.572;24.730;2023-06-14T09:03:43;91289.31;;;19.64;100.00
59274;BME280;45044;41.572;24.730;2023-06-14T09:06:11;91292.66;;;19.78;100.00
59274;BME280;45044;41.572;24.730;2023-06-14T09:08:42;91290.16;;;19.96;100.00
59274;BME280;45044;41.572;24.730;2023-06-14T09:11:11;91295.38;;;20.00;100.00
59274;BME280;45044;41.572;24.730;2023-06-14T09:13:39;91292.03;;;20.09;100.00
59274;BME280;45044;41.572;24.730;2023-06-14T09:16:07;91296.00;;;19.69;100.00
59274;BME280;45044;41.572;24.730;2023-06-14T09:18:39;91294.28;;;19.75;100.00
59274;BME280;45044;41.572;24.730;2023-06-14T09:21:08;91290.53;;;19.72;100.00
59274;BME280;45044;41.572;24.730;2023-06-14T09:23:40;91287.84;;;19.50;100.00
59274;BME280;45044;41.572;24.730;2023-06-14T09:26:12;91294.13;;;19.56;100.00
59274;BME280;45044;41.572;24.730;2023-06-14T09:28:44;91295.03;;;19.75;100.00
59274;BME280;45044;41.572;24.730;2023-06-14T09:31:15;91296.00;;;19.69;100.00
59274;BME280;45044;41.572;24.730;2023-06-14T09:33:43;91262.03;;;19.47;100.00
59274;BME280;45044;41.572;24.730;2023-06-14T09:36:21;91293.94;;;19.86;100.00
59274;BME280;45044;41.572;24.730;2023-06-14T09:39:16;91279.44;;;20.09;100.00
59274;BME280;45044;41.572;24.730;2023-06-14T09:41:43;91292.22;;;20.15;100.00
59274;BME280;45044;41.572;24.730;2023-06-14T09:44:11;91284.75;;;20.54;100.00
59274;BME280;45044;41.572;24.730;2023-06-14T09:46:46;91283.56;;;20.87;100.00
59274;BME280;45044;41.572;24.730;2023-06-14T09:49:14;91286.72;;;20.63;100.00
59274;BME280;45044;41.572;24.730;2023-06-14T09:51:45;91286.31;;;20.74;100.00
59274;BME280;45044;41.572;24.730;2023-06-14T09:54:16;91279.28;;;20.58;100.00
59274;BME280;45044;41.572;24.730;2023-06-14T09:56:51;91280.06;;;20.36;100.00
59274;BME280;45044;41.572;24.730;2023-06-14T09:59:22;91284.47;;;20.30;100.00
59274;BME280;45044;41.572;24.730;2023-06-14T10:01:58;91285.28;;;20.17;100.00
59274;BME280;45044;41.572;24.730;2023-06-14T10:04:27;91278.56;;;20.35;100.00
59274;BME280;45044;41.572;24.730;2023-06-14T10:06:56;91280.91;;;20.55;100.00
59274;BME280;45044;41.572;24.730;2023-06-14T10:09:25;91272.56;;;20.85;100.00
59274;BME280;45044;41.572;24.730;2023-06-14T10:11:52;91265.00;;;21.25;100.00
59274;BME280;45044;41.572;24.730;2023-06-14T10:14:19;91269.06;;;21.67;100.00
59274;BME280;45044;41.572;24.730;2023-06-14T10:19:40;91264.19;;;20.96;100.00
59274;BME280;45044;41.572;24.730;2023-06-14T10:22:21;91271.47;;;20.41;100.00
59274;BME280;45044;41.572;24.730;2023-06-14T10:24:51;91257.47;;;20.91;100.00
59274;BME280;45044;41.572;24.730;2023-06-14T10:27:18;91268.56;;;21.22;100.00
59274;BME280;45044;41.572;24.730;2023-06-14T10:32:25;91270.91;;;20.78;100.00
59274;BME280;45044;41.572;24.730;2023-06-14T10:34:56;91276.34;;;20.65;100.00
59274;BME280;45044;41.572;24.730;2023-06-14T10:37:24;91275.19;;;20.76;100.00
59274;BME280;45044;41.572;24.730;2023-06-14T10:39:51;91266.91;;;20.42;100.00
59274;BME280;45044;41.572;24.730;2023-06-14T10:42:20;91275.00;;;20.06;100.00
59274;BME280;45044;41.572;24.730;2023-06-14T10:44:55;91284.88;;;19.35;100.00
59274;BME280;45044;41.572;24.730;2023-06-14T10:47:35;91274.22;;;19.09;100.00
59274;BME280;45044;41.572;24.730;2023-06-14T10:50:05;91279.16;;;18.97;100.00
59274;BME280;45044;41.572;24.730;2023-06-14T10:52:35;91277.13;;;18.88;100.00
59274;BME280;45044;41.572;24.730;2023-06-14T10:55:34;91280.22;;;18.61;100.00
59274;BME280;45044;41.572;24.730;2023-06-14T10:58:02;91272.97;;;18.61;100.00
59274;BME280;45044;41.572;24.730;2023-06-14T11:00:31;91272.03;;;18.68;100.00
59274;BME280;45044;41.572;24.730;2023-06-14T11:05:57;91272.00;;;18.55;100.00
59274;BME280;45044;41.572;24.730;2023-06-14T11:10:54;91272.75;;;18.82;100.00
59274;BME280;45044;41.572;24.730;2023-06-14T11:13:25;91267.97;;;18.89;100.00
59274;BME280;45044;41.572;24.730;2023-06-14T11:15:52;91272.22;;;18.87;100.00
59274;BME280;45044;41.572;24.730;2023-06-14T11:18:24;91267.97;;;18.89;100.00
59274;BME280;45044;41.572;24.730;2023-06-14T11:20:51;91265.00;;;18.87;100.00
59274;BME280;45044;41.572;24.730;2023-06-14T11:23:18;91276.38;;;18.88;100.00
59274;BME280;45044;41.572;24.730;2023-06-14T11:25:51;91264.25;;;19.13;100.00
59274;BME280;45044;41.572;24.730;2023-06-14T11:28:18;91269.66;;;19.35;100.00
59274;BME280;45044;41.572;24.730;2023-06-14T11:30:49;91272.72;;;19.34;100.00
59274;BME280;45044;41.572;24.730;2023-06-14T11:33:26;91268.69;;;19.42;100.00
59274;BME280;45044;41.572;24.730;2023-06-14T11:35:53;91255.88;;;19.72;100.00
59274;BME280;45044;41.572;24.730;2023-06-14T11:38:20;91263.78;;;19.98;100.00
59274;BME280;45044;41.572;24.730;2023-06-14T11:40:46;91256.19;;;19.74;100.00
59274;BME280;45044;41.572;24.730;2023-06-14T11:43:13;91262.00;;;19.95;100.00
59274;BME280;45044;41.572;24.730;2023-06-14T11:45:40;91260.34;;;20.11;100.00
59274;BME280;45044;41.572;24.730;2023-06-14T11:48:07;91261.16;;;20.53;100.00
59274;BME280;45044;41.572;24.730;2023-06-14T11:50:41;91263.13;;;20.62;100.00
59274;BME280;45044;41.572;24.730;2023-06-14T11:53:07;91256.19;;;20.10;100.00
59274;BME280;45044;41.572;24.730;2023-06-14T11:55:37;91263.25;;;20.26;100.00
59274;BME280;45044;41.572;24.730;2023-06-14T11:58:06;91259.72;;;20.07;100.00
59274;BME280;45044;41.572;24.730;2023-06-14T12:00:35;91257.22;;;20.13;100.00
59274;BME280;45044;41.572;24.730;2023-06-14T12:03:03;91255.22;;;20.04;100.00
59274;BME280;45044;41.572;24.730;2023-06-14T12:05:30;91259.59;;;20.10;100.00
59274;BME280;45044;41.572;24.730;2023-06-14T12:08:01;91263.00;;;20.33;100.00
59274;BME280;45044;41.572;24.730;2023-06-14T12:10:29;91259.72;;;20.29;100.00
59274;BME280;45044;41.572;24.730;2023-06-14T12:12:58;91261.44;;;20.45;100.00
59274;BME280;45044;41.572;24.730;2023-06-14T12:15:28;91256.91;;;20.65;100.00
59274;BME280;45044;41.572;24.730;2023-06-14T12:17:57;91256.94;;;20.74;100.00
59274;BME280;45044;41.572;24.730;2023-06-14T12:20:29;91258.75;;;20.77;100.00
59274;BME280;45044;41.572;24.730;2023-06-14T12:22:58;91262.13;;;20.68;100.00
59274;BME280;45044;41.572;24.730;2023-06-14T12:25:30;91265.75;;;20.52;100.00
59274;BME280;45044;41.572;24.730;2023-06-14T12:28:06;91256.84;;;20.46;100.00
59274;BME280;45044;41.572;24.730;2023-06-14T12:30:34;91245.81;;;20.12;100.00
59274;BME280;45044;41.572;24.730;2023-06-14T12:33:02;91257.34;;;20.09;100.00
59274;BME280;45044;41.572;24.730;2023-06-14T12:35:29;91253.75;;;20.03;100.00
59274;BME280;45044;41.572;24.730;2023-06-14T12:37:56;91266.06;;;19.87;100.00
59274;BME280;45044;41.572;24.730;2023-06-14T12:40:23;91264.16;;;19.87;100.00
59274;BME280;45044;41.572;24.730;2023-06-14T12:42:50;91263.47;;;19.38;100.00
59274;BME280;45044;41.572;24.730;2023-06-14T12:45:16;91263.16;;;19.23;100.00
59274;BME280;45044;41.572;24.730;2023-06-14T12:47:44;91254.00;;;19.24;100.00
59274;BME280;45044;41.572;24.730;2023-06-14T12:50:11;91255.81;;;19.01;100.00
59274;BME280;45044;41.572;24.730;2023-06-14T12:52:38;91256.13;;;19.03;100.00
59274;BME280;45044;41.572;24.730;2023-06-14T12:55:05;91261.03;;;18.92;100.00
59274;BME280;45044;41.572;24.730;2023-06-14T12:57:33;91270.28;;;18.61;100.00
59274;BME280;45044;41.572;24.730;2023-06-14T13:00:01;91269.97;;;18.46;100.00
59274;BME280;45044;41.572;24.730;2023-06-14T13:02:29;91263.59;;;18.57;100.00
59274;BME280;45044;41.572;24.730;2023-06-14T13:04:56;91263.81;;;18.49;100.00